createdAt,value
2023-03-11T00:00:14.168Z,0.45
2023-03-11T00:02:41.081Z,0.60
2023-03-11T00:05:08.716Z,0.40
2023-03-11T00:07:35.334Z,0.30
2023-03-11T00:10:01.864Z,0.73
2023-03-11T00:12:28.367Z,0.40
2023-03-11T00:14:54.890Z,0.60
2023-03-11T00:17:21.428Z,0.40
2023-03-11T00:19:47.959Z,0.65
2023-03-11T00:22:14.490Z,0.47
2023-03-11T00:24:41.039Z,0.43
2023-03-11T00:27:07.568Z,0.40
2023-03-11T00:29:34.064Z,0.38
2023-03-11T00:32:00.662Z,0.40
2023-03-11T00:34:27.229Z,0.50
2023-03-11T00:36:53.782Z,0.60
2023-03-11T00:39:20.334Z,0.50
2023-03-11T00:41:46.890Z,0.40
2023-03-11T00:44:13.425Z,0.50
2023-03-11T00:46:40.095Z,0.40
2023-03-11T00:49:06.628Z,0.40
2023-03-11T00:51:34.275Z,0.35
2023-03-11T00:54:01.318Z,0.52
2023-03-11T00:56:27.880Z,0.40
2023-03-11T00:58:54.430Z,0.50
2023-03-11T01:01:21.369Z,0.35
2023-03-11T01:03:48.328Z,0.60
2023-03-11T01:06:15.189Z,0.60
2023-03-11T01:08:42.108Z,0.40
2023-03-11T01:11:08.926Z,1.20
2023-03-11T01:13:36.239Z,0.57
2023-03-11T01:16:02.921Z,0.50
2023-03-11T01:18:29.779Z,0.70
2023-03-11T01:20:56.570Z,0.70
2023-03-11T01:23:23.160Z,0.65
2023-03-11T01:25:49.666Z,0.30
2023-03-11T01:28:16.381Z,0.30
2023-03-11T01:30:43.547Z,0.43
2023-03-11T01:33:15.507Z,0.30
2023-03-11T01:35:43.576Z,1.17
2023-03-11T01:38:10.730Z,0.57
2023-03-11T01:40:43.001Z,0.40
2023-03-11T01:43:38.844Z,0.40
2023-03-11T01:46:21.462Z,0.43
2023-03-11T01:48:50.797Z,0.43
2023-03-11T01:51:39.204Z,0.50
2023-03-11T01:54:10.757Z,1.15
2023-03-11T01:56:39.302Z,0.50
2023-03-11T01:59:08.059Z,0.60
2023-03-11T02:01:37.959Z,0.40
2023-03-11T02:04:04.682Z,0.57
2023-03-11T02:06:32.506Z,0.47
2023-03-11T02:09:00.946Z,0.45
2023-03-11T02:11:30.218Z,0.40
2023-03-11T02:14:00.808Z,0.50
2023-03-11T02:16:27.650Z,0.50
2023-03-11T02:18:54.403Z,0.47
2023-03-11T02:21:30.208Z,0.35
2023-03-11T02:24:05.492Z,0.55
2023-03-11T02:26:56.669Z,0.50
2023-03-11T02:29:24.862Z,0.70
2023-03-11T02:31:51.727Z,0.50
2023-03-11T02:34:33.493Z,0.60
2023-03-11T02:37:00.898Z,0.77
2023-03-11T02:39:43.344Z,0.82
2023-03-11T02:42:12.681Z,0.55
2023-03-11T02:44:42.660Z,0.60
2023-03-11T02:47:09.812Z,0.80
2023-03-11T02:49:37.034Z,0.60
2023-03-11T02:52:04.518Z,0.60
2023-03-11T02:54:31.223Z,0.80
2023-03-11T02:56:58.075Z,0.95
2023-03-11T02:59:24.608Z,0.50
2023-03-11T03:01:51.139Z,0.70
2023-03-11T03:04:17.749Z,0.75
2023-03-11T03:06:44.353Z,0.70
2023-03-11T03:09:10.899Z,0.68
2023-03-11T03:11:37.559Z,0.60
2023-03-11T03:14:04.139Z,0.70
2023-03-11T03:16:30.740Z,0.95
2023-03-11T03:18:57.320Z,0.82
2023-03-11T03:21:23.908Z,0.60
2023-03-11T03:23:50.430Z,0.60
2023-03-11T03:26:17.083Z,0.70
2023-03-11T03:28:43.636Z,0.65
2023-03-11T03:31:11.305Z,0.70
2023-03-11T03:33:38.148Z,0.90
2023-03-11T03:36:09.861Z,0.90
2023-03-11T03:38:36.457Z,0.93
2023-03-11T03:41:03.315Z,0.70
2023-03-11T03:43:29.969Z,0.90
2023-03-11T03:45:57.576Z,0.90
2023-03-11T03:48:24.318Z,0.75
2023-03-11T03:50:51.456Z,0.75
2023-03-11T03:53:18.224Z,0.80
2023-03-11T03:55:44.743Z,0.80
2023-03-11T03:58:11.312Z,0.73
2023-03-11T04:00:37.866Z,0.65
2023-03-11T04:03:04.799Z,0.60
2023-03-11T04:05:31.937Z,0.70
2023-03-11T04:07:58.628Z,0.60
2023-03-11T04:10:25.200Z,0.93
2023-03-11T04:12:51.728Z,1.05
2023-03-11T04:15:18.417Z,0.80
2023-03-11T04:17:44.991Z,0.70
2023-03-11T04:20:12.026Z,0.50
2023-03-11T04:22:38.587Z,0.60
2023-03-11T04:25:05.516Z,0.77
2023-03-11T04:27:32.087Z,0.60
2023-03-11T04:29:58.633Z,0.50
2023-03-11T04:32:25.245Z,0.60
2023-03-11T04:34:51.918Z,0.60
2023-03-11T04:37:18.431Z,0.60
2023-03-11T04:39:44.940Z,0.50
2023-03-11T04:42:13.945Z,0.52
2023-03-11T04:44:40.485Z,0.60
2023-03-11T04:47:07.051Z,1.02
2023-03-11T04:49:33.646Z,0.68
2023-03-11T04:52:00.228Z,0.70
2023-03-11T04:54:26.833Z,0.50
2023-03-11T04:56:53.371Z,0.50
2023-03-11T04:59:19.919Z,0.68
2023-03-11T05:01:46.534Z,0.70
2023-03-11T05:04:13.197Z,0.50
2023-03-11T05:06:39.753Z,0.50
2023-03-11T05:09:06.757Z,0.60
2023-03-11T05:11:34.472Z,0.60
2023-03-11T05:14:01.097Z,0.50
2023-03-11T05:16:27.882Z,0.50
2023-03-11T05:18:54.470Z,0.52
2023-03-11T05:21:20.975Z,0.60
2023-03-11T05:23:47.503Z,0.60
2023-03-11T05:26:14.034Z,0.80
2023-03-11T05:28:40.647Z,0.60
2023-03-11T05:31:10.621Z,0.60
2023-03-11T05:33:37.639Z,0.57
2023-03-11T05:36:09.125Z,0.63
2023-03-11T05:38:37.313Z,0.55
2023-03-11T05:41:04.011Z,0.63
2023-03-11T05:43:30.588Z,0.47
2023-03-11T05:45:57.203Z,0.57
2023-03-11T05:48:23.777Z,0.80
2023-03-11T05:50:50.290Z,0.60
2023-03-11T05:53:16.841Z,1.65
2023-03-11T05:55:43.463Z,0.80
2023-03-11T05:58:10.056Z,0.77
2023-03-11T06:00:36.908Z,0.65
2023-03-11T06:03:03.587Z,0.70
2023-03-11T06:05:30.151Z,0.60
2023-03-11T06:07:56.776Z,0.50
2023-03-11T06:10:23.385Z,0.77
2023-03-11T06:12:49.908Z,0.70
2023-03-11T06:15:16.510Z,0.88
2023-03-11T06:17:43.099Z,0.40
2023-03-11T06:20:10.246Z,0.52
2023-03-11T06:22:39.611Z,0.50
2023-03-11T06:25:07.078Z,0.50
2023-03-11T06:27:33.628Z,0.60
2023-03-11T06:30:00.222Z,0.55
2023-03-11T06:32:26.863Z,0.75
2023-03-11T06:34:53.467Z,0.60
2023-03-11T06:37:21.129Z,0.70
2023-03-11T06:39:47.704Z,0.63
2023-03-11T06:42:14.258Z,0.70
2023-03-11T06:44:40.800Z,0.60
2023-03-11T06:47:07.358Z,0.60
2023-03-11T06:49:34.079Z,1.35
2023-03-11T06:52:00.638Z,3.30
2023-03-11T06:54:27.218Z,1.05
2023-03-11T06:56:53.731Z,0.70
2023-03-11T06:59:20.852Z,0.90
2023-03-11T07:01:47.406Z,0.70
2023-03-11T07:04:14.036Z,0.70
2023-03-11T07:06:41.959Z,0.63
2023-03-11T07:09:08.480Z,0.68
2023-03-11T07:11:35.205Z,0.60
2023-03-11T07:14:01.907Z,0.70
2023-03-11T07:16:30.615Z,0.60
2023-03-11T07:19:00.910Z,0.70
2023-03-11T07:21:29.550Z,0.80
2023-03-11T07:23:58.347Z,0.88
2023-03-11T07:26:26.125Z,0.60
2023-03-11T07:28:54.683Z,0.90
2023-03-11T07:31:32.637Z,0.80
2023-03-11T07:34:01.697Z,0.85
2023-03-11T07:36:29.261Z,0.80
2023-03-11T07:39:04.269Z,0.70
2023-03-11T07:41:33.167Z,0.80
2023-03-11T07:44:01.440Z,0.80
2023-03-11T07:46:29.229Z,0.63
2023-03-11T07:48:56.054Z,0.93
2023-03-11T07:51:26.302Z,0.80
2023-03-11T07:53:55.301Z,0.60
2023-03-11T07:56:23.934Z,0.82
2023-03-11T07:58:50.972Z,0.90
2023-03-11T08:01:23.280Z,0.88
2023-03-11T08:03:56.844Z,0.70
2023-03-11T08:06:29.393Z,0.60
2023-03-11T08:08:56.076Z,0.80
2023-03-11T08:11:22.907Z,0.77
2023-03-11T08:13:50.292Z,1.00
2023-03-11T08:16:20.753Z,0.73
2023-03-11T08:18:49.125Z,0.90
2023-03-11T08:21:18.852Z,0.70
2023-03-11T08:23:48.292Z,0.82
2023-03-11T08:26:17.732Z,0.70
2023-03-11T08:28:45.213Z,0.60
2023-03-11T08:31:17.673Z,0.80
2023-03-11T08:33:46.771Z,0.95
2023-03-11T08:36:13.560Z,0.70
2023-03-11T08:38:40.405Z,0.82
2023-03-11T08:41:07.309Z,0.70
2023-03-11T08:43:34.066Z,0.80
2023-03-11T08:46:06.862Z,0.90
2023-03-11T08:48:34.244Z,0.50
2023-03-11T08:51:00.817Z,0.75
2023-03-11T08:53:27.352Z,0.70
2023-03-11T08:55:53.898Z,1.13
2023-03-11T08:58:20.913Z,0.70
2023-03-11T09:00:47.971Z,0.60
2023-03-11T09:03:14.569Z,0.70
2023-03-11T09:05:41.562Z,0.52
2023-03-11T09:08:08.658Z,0.70
2023-03-11T09:10:35.222Z,0.73
2023-03-11T09:13:01.883Z,0.60
2023-03-11T09:15:28.572Z,0.50
2023-03-11T09:17:55.851Z,0.60
2023-03-11T09:20:22.844Z,0.60
2023-03-11T09:22:49.748Z,0.68
2023-03-11T09:25:16.348Z,0.80
2023-03-11T09:27:42.908Z,0.50
2023-03-11T09:30:10.786Z,0.70
2023-03-11T09:32:37.575Z,0.70
2023-03-11T09:35:04.909Z,0.50
2023-03-11T09:37:31.537Z,0.90
2023-03-11T09:39:58.120Z,0.63
2023-03-11T09:42:55.158Z,0.57
2023-03-11T09:45:27.349Z,0.55
2023-03-11T09:48:10.936Z,0.90
2023-03-11T09:51:31.186Z,1.23
2023-03-11T09:54:06.122Z,0.65
2023-03-11T09:56:35.402Z,0.80
2023-03-11T09:59:09.355Z,0.70
2023-03-11T10:01:43.325Z,0.70
2023-03-11T10:04:21.379Z,0.70
2023-03-11T10:06:48.401Z,0.60
2023-03-11T10:09:39.248Z,0.70
2023-03-11T10:12:23.922Z,0.60
2023-03-11T10:15:23.813Z,1.05
2023-03-11T10:18:17.771Z,0.65
2023-03-11T10:21:06.809Z,0.60
2023-03-11T10:23:57.777Z,0.60
2023-03-11T10:26:37.385Z,0.60
2023-03-11T10:29:16.668Z,0.60
2023-03-11T10:32:13.480Z,0.70
2023-03-11T10:34:48.136Z,0.68
2023-03-11T10:37:21.211Z,0.50
2023-03-11T10:39:48.797Z,0.50
2023-03-11T10:42:20.406Z,0.60
2023-03-11T10:44:46.947Z,0.70
2023-03-11T10:47:25.592Z,0.73
2023-03-11T10:49:52.707Z,0.70
2023-03-11T10:52:20.112Z,0.70
2023-03-11T10:54:49.037Z,0.73
2023-03-11T10:57:27.370Z,0.50
2023-03-11T10:59:59.441Z,0.80
2023-03-11T11:02:31.708Z,0.60
2023-03-11T11:05:17.105Z,0.73
2023-03-11T11:07:48.810Z,0.50
2023-03-11T11:10:19.972Z,0.60
2023-03-11T11:12:59.088Z,0.40
2023-03-11T11:15:28.270Z,0.50
2023-03-11T11:17:59.122Z,0.70
2023-03-11T11:20:27.362Z,0.60
2023-03-11T11:23:02.837Z,0.60
2023-03-11T11:25:35.887Z,0.70
2023-03-11T11:28:05.252Z,0.80
2023-03-11T11:30:31.840Z,0.50
2023-03-11T11:33:41.330Z,0.60
2023-03-11T11:36:15.086Z,0.60
2023-03-11T11:41:14.980Z,0.63
2023-03-11T11:44:01.572Z,0.40
2023-03-11T11:46:49.390Z,0.60
2023-03-11T11:49:15.834Z,0.60
2023-03-11T11:51:51.652Z,0.50
2023-03-11T11:54:42.897Z,0.50
2023-03-11T11:57:12.921Z,0.70
2023-03-11T11:59:39.958Z,0.73
2023-03-11T12:02:31.133Z,0.55
2023-03-11T12:05:00.542Z,0.60
2023-03-11T12:07:44.862Z,0.70
2023-03-11T12:10:34.876Z,0.70
2023-03-11T12:13:13.529Z,0.60
2023-03-11T12:15:47.947Z,0.60
2023-03-11T12:18:24.525Z,0.60
2023-03-11T12:20:56.125Z,0.70
2023-03-11T12:23:50.513Z,0.65
2023-03-11T12:29:09.697Z,0.60
2023-03-11T12:31:39.541Z,0.82
2023-03-11T12:34:12.095Z,0.52
2023-03-11T12:36:43.976Z,0.50
2023-03-11T12:39:24.221Z,0.68
2023-03-11T12:42:10.833Z,0.90
2023-03-11T12:44:38.554Z,0.80
2023-03-11T12:47:08.129Z,0.90
2023-03-11T12:49:38.594Z,1.70
2023-03-11T12:52:17.368Z,0.80
2023-03-11T12:54:45.367Z,0.90
2023-03-11T12:57:18.107Z,0.90
2023-03-11T13:00:12.267Z,0.95
2023-03-11T13:02:42.103Z,0.93
2023-03-11T13:05:30.501Z,0.60
2023-03-11T13:08:10.131Z,1.00
2023-03-11T13:10:41.033Z,0.95
2023-03-11T13:13:22.565Z,1.27
2023-03-11T13:15:49.732Z,1.20
2023-03-11T13:18:19.180Z,1.08
2023-03-11T13:20:49.289Z,0.95
2023-03-11T13:23:21.970Z,1.25
2023-03-11T13:25:49.834Z,0.95
2023-03-11T13:28:39.530Z,0.60
2023-03-11T13:31:15.150Z,0.80
2023-03-11T13:33:50.037Z,0.70
2023-03-11T13:36:44.212Z,0.70
2023-03-11T13:39:12.558Z,0.77
2023-03-11T13:41:43.678Z,0.60
2023-03-11T13:44:19.021Z,0.65
2023-03-11T13:46:49.997Z,0.60
2023-03-11T13:49:22.346Z,0.50
2023-03-11T13:51:49.946Z,0.70
2023-03-11T13:54:26.802Z,0.73
2023-03-11T13:56:59.059Z,0.60
2023-03-11T13:59:27.355Z,0.60
2023-03-11T14:01:57.567Z,0.80
2023-03-11T14:04:28.576Z,0.70
2023-03-11T14:06:55.230Z,0.52
2023-03-11T14:09:24.491Z,0.80
2023-03-11T14:11:54.367Z,0.88
2023-03-11T14:14:53.286Z,0.80
2023-03-11T14:17:20.591Z,0.65
2023-03-11T14:20:16.571Z,0.70
2023-03-11T14:22:48.612Z,0.63
2023-03-11T14:25:19.898Z,0.65
2023-03-11T14:27:51.900Z,0.57
2023-03-11T14:30:21.468Z,0.60
2023-03-11T14:33:06.760Z,0.80
2023-03-11T14:35:34.041Z,0.70
2023-03-11T14:38:01.120Z,0.60
2023-03-11T14:40:34.119Z,0.60
2023-03-11T14:43:03.924Z,0.63
2023-03-11T14:45:33.655Z,0.60
2023-03-11T14:48:10.029Z,0.60
2023-03-11T14:50:36.740Z,0.80
2023-03-11T14:53:13.872Z,0.90
2023-03-11T14:56:06.782Z,0.95
2023-03-11T14:58:35.870Z,2.30
2023-03-11T15:01:19.601Z,0.90
2023-03-11T15:04:08.567Z,0.70
2023-03-11T15:06:38.174Z,0.70
2023-03-11T15:09:12.518Z,0.50
2023-03-11T15:11:58.267Z,0.40
2023-03-11T15:14:33.571Z,0.65
2023-03-11T15:17:33.793Z,0.90
2023-03-11T15:20:07.433Z,0.65
2023-03-11T15:22:40.166Z,0.80
2023-03-11T15:25:18.578Z,0.60
2023-03-11T15:27:45.541Z,0.60
2023-03-11T15:30:26.242Z,0.50
2023-03-11T15:32:53.775Z,0.52
2023-03-11T15:35:26.750Z,0.60
2023-03-11T15:38:21.478Z,0.53
2023-03-11T15:40:57.753Z,0.45
2023-03-11T15:43:42.663Z,0.50
2023-03-11T15:46:11.219Z,0.70
2023-03-11T15:48:37.903Z,0.45
2023-03-11T15:51:04.670Z,1.23
2023-03-11T15:53:31.427Z,0.52
2023-03-11T15:56:07.441Z,0.45
2023-03-11T15:58:36.398Z,0.77
2023-03-11T16:01:03.238Z,1.13
2023-03-11T16:03:31.483Z,1.08
2023-03-11T16:05:58.274Z,1.20
2023-03-11T16:08:24.868Z,0.70
2023-03-11T16:10:51.494Z,0.90
2023-03-11T16:13:18.243Z,0.60
2023-03-11T16:15:46.956Z,0.55
2023-03-11T16:18:13.804Z,0.77
2023-03-11T16:20:44.962Z,0.80
2023-03-11T16:23:26.148Z,0.90
2023-03-11T16:26:00.859Z,0.60
2023-03-11T16:28:27.440Z,0.60
2023-03-11T16:30:54.111Z,0.70
2023-03-11T16:33:20.738Z,0.70
2023-03-11T16:35:47.345Z,0.93
2023-03-11T16:38:14.538Z,0.60
2023-03-11T16:40:41.106Z,0.50
2023-03-11T16:43:10.448Z,0.60
2023-03-11T16:45:37.005Z,0.60
2023-03-11T16:48:05.529Z,0.60
2023-03-11T16:50:34.250Z,0.50
2023-03-11T16:53:01.541Z,0.60
2023-03-11T16:55:28.225Z,0.68
2023-03-11T16:57:57.373Z,0.50
2023-03-11T17:00:25.006Z,0.60
2023-03-11T17:02:51.720Z,0.57
2023-03-11T17:05:18.408Z,0.60
2023-03-11T17:07:47.248Z,0.85
2023-03-11T17:10:13.984Z,0.70
2023-03-11T17:12:40.542Z,0.73
2023-03-11T17:15:07.859Z,1.13
2023-03-11T17:17:34.593Z,0.60
2023-03-11T17:20:01.130Z,0.52
2023-03-11T17:22:27.831Z,0.88
2023-03-11T17:24:54.640Z,1.00
2023-03-11T17:27:21.331Z,0.60
2023-03-11T17:29:48.185Z,0.60
2023-03-11T17:32:17.566Z,0.60
2023-03-11T17:34:44.724Z,0.73
2023-03-11T17:37:11.573Z,0.90
2023-03-11T17:39:38.231Z,0.80
2023-03-11T17:42:05.008Z,0.93
2023-03-11T17:44:44.588Z,0.80
2023-03-11T17:47:19.636Z,0.73
2023-03-11T17:49:47.084Z,0.75
2023-03-11T17:52:13.819Z,0.73
2023-03-11T17:54:40.445Z,0.57
2023-03-11T17:57:07.079Z,0.60
2023-03-11T17:59:33.896Z,0.50
2023-03-11T18:02:00.784Z,0.60
2023-03-11T18:04:28.253Z,0.75
2023-03-11T18:06:55.715Z,0.80
2023-03-11T18:09:22.758Z,0.60
2023-03-11T18:11:49.633Z,0.70
2023-03-11T18:14:16.415Z,0.75
2023-03-11T18:16:42.981Z,0.60
2023-03-11T18:19:09.529Z,0.50
2023-03-11T18:21:36.116Z,0.80
2023-03-11T18:24:02.747Z,0.77
2023-03-11T18:26:30.261Z,0.70
2023-03-11T18:28:58.401Z,0.75
2023-03-11T18:31:27.145Z,0.90
2023-03-11T18:33:56.552Z,0.85
2023-03-11T18:36:25.448Z,0.85
2023-03-11T18:38:53.483Z,0.80
2023-03-11T18:41:21.070Z,1.00
2023-03-11T18:43:51.365Z,0.50
2023-03-11T18:46:18.091Z,0.70
2023-03-11T18:48:44.906Z,1.08
2023-03-11T18:51:12.770Z,1.15
2023-03-11T18:53:41.203Z,0.93
2023-03-11T18:56:12.733Z,0.98
2023-03-11T18:58:39.352Z,0.70
2023-03-11T19:01:08.217Z,0.90
2023-03-11T19:03:34.875Z,1.00
2023-03-11T19:06:02.079Z,0.90
2023-03-11T19:08:28.704Z,1.13
2023-03-11T19:10:55.326Z,1.13
2023-03-11T19:13:22.133Z,0.85
2023-03-11T19:15:48.823Z,0.90
2023-03-11T19:18:15.536Z,0.90
2023-03-11T19:20:42.252Z,0.95
2023-03-11T19:23:09.300Z,1.00
2023-03-11T19:25:35.949Z,1.00
2023-03-11T19:28:02.833Z,1.00
2023-03-11T19:30:29.467Z,1.10
2023-03-11T19:32:56.131Z,1.23
2023-03-11T19:35:23.765Z,1.20
2023-03-11T19:37:50.904Z,1.35
2023-03-11T19:40:18.057Z,1.40
2023-03-11T19:42:44.649Z,1.17
2023-03-11T19:45:11.658Z,1.58
2023-03-11T19:47:38.580Z,0.90
2023-03-11T19:50:05.865Z,1.10
2023-03-11T19:52:34.669Z,1.10
2023-03-11T19:55:01.284Z,1.23
2023-03-11T19:57:27.848Z,0.95
2023-03-11T19:59:55.565Z,1.05
2023-03-11T20:02:22.223Z,1.13
2023-03-11T20:04:48.787Z,1.20
2023-03-11T20:07:15.450Z,1.63
2023-03-11T20:09:42.227Z,1.10
2023-03-11T20:12:08.928Z,1.25
2023-03-11T20:14:35.535Z,0.95
2023-03-11T20:17:02.136Z,1.30
2023-03-11T20:19:28.765Z,0.70
2023-03-11T20:21:55.327Z,1.10
2023-03-11T20:24:21.935Z,1.10
2023-03-11T20:26:51.134Z,0.80
2023-03-11T20:29:18.175Z,1.15
2023-03-11T20:31:44.913Z,1.10
2023-03-11T20:34:12.397Z,1.27
2023-03-11T20:36:39.337Z,1.00
2023-03-11T20:39:09.961Z,1.05
2023-03-11T20:41:39.068Z,1.10
2023-03-11T20:44:07.432Z,0.98
2023-03-11T20:46:34.576Z,1.10
2023-03-11T20:49:01.930Z,1.20
2023-03-11T20:51:28.731Z,1.00
2023-03-11T20:53:55.588Z,1.08
2023-03-11T20:56:24.948Z,1.52
2023-03-11T20:58:53.129Z,1.30
2023-03-11T21:01:28.882Z,1.50
2023-03-11T21:03:58.248Z,1.65
2023-03-11T21:06:27.682Z,1.83
2023-03-11T21:08:55.952Z,1.58
2023-03-11T21:11:23.807Z,1.38
2023-03-11T21:13:51.302Z,1.80
2023-03-11T21:16:18.676Z,1.85
2023-03-11T21:18:49.184Z,1.30
2023-03-11T21:21:17.475Z,1.33
2023-03-11T21:23:44.525Z,3.03
2023-03-11T21:26:13.500Z,1.10
2023-03-11T21:28:42.165Z,1.75
2023-03-11T21:31:11.172Z,1.27
2023-03-11T21:33:39.435Z,1.17
2023-03-11T21:36:07.231Z,1.63
2023-03-11T21:38:34.088Z,1.50
2023-03-11T21:41:07.133Z,1.77
2023-03-11T21:43:33.819Z,1.42
2023-03-11T21:46:00.835Z,1.77
2023-03-11T21:48:27.596Z,1.45
2023-03-11T21:50:54.504Z,1.95
2023-03-11T21:53:21.251Z,1.35
2023-03-11T21:55:47.810Z,1.55
2023-03-11T21:58:14.862Z,1.50
2023-03-11T22:00:41.473Z,1.30
2023-03-11T22:03:08.286Z,1.10
2023-03-11T22:05:34.904Z,1.20
2023-03-11T22:08:01.688Z,1.60
2023-03-11T22:10:28.279Z,1.35
2023-03-11T22:12:54.828Z,1.17
2023-03-11T22:15:21.562Z,1.10
2023-03-11T22:17:48.321Z,0.88
2023-03-11T22:20:15.275Z,1.05
2023-03-11T22:22:41.978Z,1.13
2023-03-11T22:25:09.133Z,1.48
2023-03-11T22:27:35.857Z,1.90
2023-03-11T22:30:02.414Z,1.52
2023-03-11T22:32:28.995Z,1.73
2023-03-11T22:34:55.561Z,1.17
2023-03-11T22:37:22.098Z,0.98
2023-03-11T22:39:48.639Z,1.65
2023-03-11T22:42:15.279Z,0.90
2023-03-11T22:44:41.790Z,1.20
2023-03-11T22:47:08.345Z,1.40
2023-03-11T22:49:34.896Z,1.23
2023-03-11T22:52:01.456Z,1.13
2023-03-11T22:54:28.071Z,1.10
2023-03-11T22:56:54.677Z,1.20
2023-03-11T22:59:21.218Z,1.00
2023-03-11T23:01:47.806Z,1.00
2023-03-11T23:04:14.673Z,0.95
2023-03-11T23:06:41.205Z,1.20
2023-03-11T23:09:07.795Z,1.00
2023-03-11T23:11:34.434Z,1.23
2023-03-11T23:14:01.035Z,1.40
2023-03-11T23:16:27.723Z,1.15
2023-03-11T23:18:55.799Z,1.63
2023-03-11T23:21:25.939Z,1.40
2023-03-11T23:23:53.642Z,1.20
2023-03-11T23:26:21.138Z,1.52
2023-03-11T23:28:50.547Z,1.58
2023-03-11T23:31:18.231Z,1.13
2023-03-11T23:33:45.319Z,1.00
2023-03-11T23:36:14.774Z,1.40
2023-03-11T23:38:41.657Z,1.10
2023-03-11T23:41:10.737Z,0.70
2023-03-11T23:43:37.593Z,1.20
2023-03-11T23:46:04.614Z,1.60
2023-03-11T23:48:31.677Z,1.45
2023-03-11T23:50:58.363Z,1.42
2023-03-11T23:53:26.412Z,1.30
2023-03-11T23:55:53.537Z,1.45
2023-03-11T23:58:21.438Z,1.90
